Time;durP1;ratioP1;P1;durP2;ratioP2;P2;SDS_P1;SDS_P2;PMS_P1;PMS_P2;Temp;Humidity;BMP_temperature;BMP_pressure;BME280_temperature;BME280_humidity;BME280_pressure;Samples;Min_cycle;Max_cycle;Signal;HPM_P1;HPM_P2
2023/11/30 00:01:13;;;;;;;22.80;15.37;;;;;;;;;;4385811;32;321611;-78
2023/11/30 00:03:40;;;;;;;23.53;15.10;;;;;;;;;;4375902;32;318511;-79
2023/11/30 00:06:09;;;;;;;28.83;18.57;;;;;;;;;;4387188;32;318623;-78
2023/11/30 00:08:36;;;;;;;31.67;19.17;;;;;;;;;;4376803;32;318592;-78
2023/11/30 00:11:06;;;;;;;29.20;18.83;;;;;;;;;;4386615;32;318432;-77
2023/11/30 00:13:33;;;;;;;30.60;19.03;;;;;;;;;;4375419;32;318706;-77
2023/11/30 00:15:59;;;;;;;28.37;18.90;;;;;;;;;;4386613;32;318724;-78
2023/11/30 00:18:26;;;;;;;26.40;17.43;;;;;;;;;;4362947;32;318396;-77
2023/11/30 00:20:53;;;;;;;34.23;20.17;;;;;;;;;;4386185;32;318619;-78
2023/11/30 00:23:21;;;;;;;32.53;18.23;;;;;;;;;;4376325;32;350410;-78
2023/11/30 00:25:48;;;;;;;36.50;21.57;;;;;;;;;;4387984;32;318155;-78
2023/11/30 00:28:14;;;;;;;36.13;21.80;;;;;;;;;;4389106;32;318420;-79
2023/11/30 00:30:41;;;;;;;29.90;18.00;;;;;;;;;;4378411;32;318547;-77
2023/11/30 00:33:08;;;;;;;24.57;14.60;;;;;;;;;;4388823;32;318477;-77
2023/11/30 00:35:35;;;;;;;22.40;14.47;;;;;;;;;;4377624;32;318616;-77
2023/11/30 00:38:01;;;;;;;26.47;16.27;;;;;;;;;;4389068;32;318435;-78
2023/11/30 00:40:30;;;;;;;35.70;21.13;;;;;;;;;;4378850;32;318666;-79
2023/11/30 00:42:56;;;;;;;40.70;22.50;;;;;;;;;;4388892;32;318760;-78
2023/11/30 00:45:23;;;;;;;36.27;22.53;;;;;;;;;;4378384;32;318161;-79
2023/11/30 00:47:50;;;;;;;35.37;21.27;;;;;;;;;;4387658;32;318683;-78
2023/11/30 00:50:17;;;;;;;32.67;19.53;;;;;;;;;;4389011;32;318541;-80
2023/11/30 00:52:43;;;;;;;31.77;18.60;;;;;;;;;;4376190;32;417448;-78
2023/11/30 00:55:10;;;;;;;27.77;18.47;;;;;;;;;;4381029;32;318465;-78
2023/11/30 00:57:38;;;;;;;38.03;22.23;;;;;;;;;;4376987;32;317725;-80
2023/11/30 01:00:08;;;;;;;31.23;18.43;;;;;;;;;;4388042;32;318358;-78
2023/11/30 01:02:35;;;;;;;25.80;16.83;;;;;;;;;;4377833;32;317882;-79
2023/11/30 01:05:02;;;;;;;24.67;15.40;;;;;;;;;;4387598;32;318564;-78
2023/11/30 01:07:29;;;;;;;23.67;15.37;;;;;;;;;;4377530;32;318590;-78
2023/11/30 01:09:56;;;;;;;20.83;14.47;;;;;;;;;;4386838;32;344709;-78
2023/11/30 01:12:23;;;;;;;21.23;14.03;;;;;;;;;;4378419;32;318545;-79
2023/11/30 01:14:52;;;;;;;24.97;12.87;;;;;;;;;;4374751;32;318526;-78
2023/11/30 01:17:18;;;;;;;18.43;12.50;;;;;;;;;;4378814;32;318463;-76
2023/11/30 01:19:45;;;;;;;20.57;12.20;;;;;;;;;;4388507;32;317729;-79
2023/11/30 01:22:12;;;;;;;18.70;12.17;;;;;;;;;;4387296;32;318502;-77
2023/11/30 01:24:39;;;;;;;15.17;11.03;;;;;;;;;;4378435;32;318615;-78
2023/11/30 01:27:06;;;;;;;17.37;12.27;;;;;;;;;;4388642;32;318673;-79
2023/11/30 01:29:33;;;;;;;22.03;10.83;;;;;;;;;;4376854;32;318627;-79
2023/11/30 01:32:01;;;;;;;16.30;11.30;;;;;;;;;;4387495;32;318634;-79
2023/11/30 01:34:28;;;;;;;24.03;13.13;;;;;;;;;;4378168;32;318712;-79
2023/11/30 01:36:55;;;;;;;18.77;12.67;;;;;;;;;;4386950;32;317690;-78
2023/11/30 01:39:22;;;;;;;21.17;13.33;;;;;;;;;;4375962;32;337819;-78
2023/11/30 01:41:48;;;;;;;20.53;14.23;;;;;;;;;;4388045;32;317867;-78
2023/11/30 01:44:15;;;;;;;22.53;13.67;;;;;;;;;;4388136;32;318613;-79
2023/11/30 01:46:42;;;;;;;26.60;15.30;;;;;;;;;;4374285;32;417665;-78
2023/11/30 01:49:10;;;;;;;29.30;16.53;;;;;;;;;;4387193;32;318510;-80
2023/11/30 01:51:38;;;;;;;26.73;15.93;;;;;;;;;;4376612;32;318562;-77
2023/11/30 01:54:06;;;;;;;27.30;15.83;;;;;;;;;;4387363;32;345452;-78
2023/11/30 01:56:35;;;;;;;20.60;13.30;;;;;;;;;;4376625;32;318541;-80
2023/11/30 01:59:02;;;;;;;22.63;14.23;;;;;;;;;;4387024;32;317838;-78
2023/11/30 02:01:30;;;;;;;23.37;13.87;;;;;;;;;;4378023;32;318658;-80
2023/11/30 02:03:58;;;;;;;19.93;12.60;;;;;;;;;;4387980;32;318636;-80
2023/11/30 02:06:26;;;;;;;25.17;13.67;;;;;;;;;;4376925;32;318597;-80
2023/11/30 02:08:53;;;;;;;20.20;11.70;;;;;;;;;;4386904;32;318781;-78
2023/11/30 02:11:20;;;;;;;15.57;10.50;;;;;;;;;;4375453;32;342568;-77
2023/11/30 02:13:48;;;;;;;16.27;9.73;;;;;;;;;;4388160;32;317826;-79
2023/11/30 02:16:14;;;;;;;13.63;9.27;;;;;;;;;;4388247;32;317492;-80
2023/11/30 02:18:41;;;;;;;11.30;8.67;;;;;;;;;;4378123;32;317514;-78
2023/11/30 02:21:08;;;;;;;8.97;7.47;;;;;;;;;;4387202;32;317499;-80
2023/11/30 02:23:36;;;;;;;12.77;8.87;;;;;;;;;;4376217;32;316564;-78
2023/11/30 02:26:03;;;;;;;13.67;8.30;;;;;;;;;;4388116;32;317521;-79
2023/11/30 02:28:30;;;;;;;9.10;6.87;;;;;;;;;;4377477;32;316746;-79
2023/11/30 02:30:57;;;;;;;12.60;7.47;;;;;;;;;;4386796;32;316469;-78
2023/11/30 02:33:24;;;;;;;11.13;7.80;;;;;;;;;;4375575;32;343401;-78
2023/11/30 02:35:50;;;;;;;14.97;7.57;;;;;;;;;;4387818;32;317492;-79
2023/11/30 02:38:17;;;;;;;12.30;7.37;;;;;;;;;;4377784;32;316729;-76
2023/11/30 02:40:45;;;;;;;11.10;6.17;;;;;;;;;;4385716;32;317661;-80
2023/11/30 02:43:12;;;;;;;9.33;6.53;;;;;;;;;;4387546;32;317676;-78
2023/11/30 02:45:40;;;;;;;6.73;5.40;;;;;;;;;;4376866;32;316672;-78
2023/11/30 02:48:06;;;;;;;6.07;5.23;;;;;;;;;;4387637;32;316525;-79
2023/11/30 02:50:33;;;;;;;8.17;6.00;;;;;;;;;;4376316;32;316664;-78
2023/11/30 02:53:01;;;;;;;4.63;4.03;;;;;;;;;;4386400;32;316717;-78
2023/11/30 02:55:27;;;;;;;7.80;4.43;;;;;;;;;;4377390;32;316537;-78
2023/11/30 02:57:56;;;;;;;7.87;4.70;;;;;;;;;;4387729;32;316676;-79
2023/11/30 03:00:22;;;;;;;5.90;5.27;;;;;;;;;;4377244;32;316672;-78
2023/11/30 03:02:50;;;;;;;6.87;4.70;;;;;;;;;;4386921;32;316509;-79
2023/11/30 03:05:17;;;;;;;8.80;5.10;;;;;;;;;;4387156;32;316741;-79
2023/11/30 03:07:43;;;;;;;7.03;4.80;;;;;;;;;;4366125;32;415326;-78
2023/11/30 03:10:11;;;;;;;6.50;5.23;;;;;;;;;;4372699;32;316564;-78
2023/11/30 03:12:37;;;;;;;5.53;4.63;;;;;;;;;;4362763;32;316522;-78
2023/11/30 03:15:07;;;;;;;5.50;4.43;;;;;;;;;;4371306;32;316757;-77
2023/11/30 03:17:34;;;;;;;7.27;4.53;;;;;;;;;;4361509;32;316544;-78
2023/11/30 03:20:01;;;;;;;5.77;4.73;;;;;;;;;;4372453;32;316530;-80
2023/11/30 03:22:27;;;;;;;5.87;4.87;;;;;;;;;;4362510;32;316693;-79
2023/11/30 03:24:54;;;;;;;9.23;5.80;;;;;;;;;;4372417;32;316393;-78
2023/11/30 03:27:21;;;;;;;8.70;5.20;;;;;;;;;;4361485;32;316714;-79
2023/11/30 03:29:48;;;;;;;4.83;4.30;;;;;;;;;;4372487;32;316475;-78
2023/11/30 03:32:16;;;;;;;6.47;3.77;;;;;;;;;;4372392;32;316814;-78
2023/11/30 03:34:43;;;;;;;8.07;4.27;;;;;;;;;;4361318;32;418825;-79
2023/11/30 03:37:09;;;;;;;5.37;4.47;;;;;;;;;;4387538;32;316615;-79
2023/11/30 03:39:36;;;;;;;5.37;4.17;;;;;;;;;;4377159;32;316616;-79
2023/11/30 03:42:03;;;;;;;6.53;5.20;;;;;;;;;;4386674;32;316835;-79
2023/11/30 03:44:30;;;;;;;6.87;4.53;;;;;;;;;;4376991;32;316479;-79
2023/11/30 03:46:57;;;;;;;6.13;4.40;;;;;;;;;;4386023;32;315930;-80
2023/11/30 03:49:25;;;;;;;5.53;4.37;;;;;;;;;;4375483;32;316636;-80
2023/11/30 03:51:52;;;;;;;4.90;4.40;;;;;;;;;;4385142;32;316615;-79
2023/11/30 03:54:18;;;;;;;5.27;4.57;;;;;;;;;;4377459;32;316895;-78
2023/11/30 03:56:44;;;;;;;5.90;5.33;;;;;;;;;;4388534;32;316366;-80
2023/11/30 03:59:11;;;;;;;6.13;5.00;;;;;;;;;;4388944;32;316551;-80
2023/11/30 04:01:38;;;;;;;5.50;5.00;;;;;;;;;;4378703;32;316677;-80
2023/11/30 04:04:05;;;;;;;3.53;3.23;;;;;;;;;;4389818;32;316680;-80
2023/11/30 04:06:33;;;;;;;6.13;4.83;;;;;;;;;;4378699;32;316798;-79
2023/11/30 04:09:00;;;;;;;5.77;4.20;;;;;;;;;;4388858;32;316625;-79
2023/11/30 04:11:27;;;;;;;5.40;3.97;;;;;;;;;;4378813;32;316688;-79
2023/11/30 04:13:54;;;;;;;4.90;3.90;;;;;;;;;;4387525;32;349782;-79
2023/11/30 04:16:23;;;;;;;4.20;3.50;;;;;;;;;;4379476;32;316513;-78
2023/11/30 04:18:50;;;;;;;4.07;3.67;;;;;;;;;;4388329;32;316538;-79
2023/11/30 04:21:20;;;;;;;4.83;4.13;;;;;;;;;;4389631;32;316564;-79
2023/11/30 04:23:48;;;;;;;9.67;4.57;;;;;;;;;;4375889;32;417049;-79
2023/11/30 04:26:15;;;;;;;10.87;6.87;;;;;;;;;;4389411;32;316544;-79
2023/11/30 04:28:42;;;;;;;13.80;7.57;;;;;;;;;;4375115;32;418564;-79
2023/11/30 04:31:09;;;;;;;14.80;8.70;;;;;;;;;;4388470;32;339962;-79
2023/11/30 04:33:36;;;;;;;15.90;9.13;;;;;;;;;;4376616;32;317471;-80
2023/11/30 04:36:04;;;;;;;19.60;10.00;;;;;;;;;;4387764;32;317635;-79
2023/11/30 04:38:31;;;;;;;14.57;8.30;;;;;;;;;;4377052;32;318158;-78
2023/11/30 04:40:59;;;;;;;9.57;6.07;;;;;;;;;;4387624;32;316936;-81
2023/11/30 04:43:26;;;;;;;5.40;4.50;;;;;;;;;;4377648;32;316768;-78
2023/11/30 04:45:53;;;;;;;6.77;4.53;;;;;;;;;;4388809;32;320771;-79
2023/11/30 04:48:19;;;;;;;5.33;4.57;;;;;;;;;;4378868;32;316667;-77
2023/11/30 04:50:46;;;;;;;5.63;4.27;;;;;;;;;;4388932;32;316418;-79
2023/11/30 04:53:13;;;;;;;4.80;4.20;;;;;;;;;;4387648;32;316428;-81
2023/11/30 04:55:40;;;;;;;5.23;4.23;;;;;;;;;;4378638;32;319333;-79
2023/11/30 04:58:08;;;;;;;6.43;5.10;;;;;;;;;;4388800;32;316624;-79
2023/11/30 05:00:35;;;;;;;26.10;12.83;;;;;;;;;;4378500;32;316128;-79
2023/11/30 05:03:01;;;;;;;41.57;18.17;;;;;;;;;;4388393;32;318554;-80
2023/11/30 05:05:28;;;;;;;34.80;18.53;;;;;;;;;;4377416;32;318371;-78
2023/11/30 05:07:55;;;;;;;29.40;14.23;;;;;;;;;;4387155;32;319216;-78
2023/11/30 05:10:22;;;;;;;34.40;14.53;;;;;;;;;;4378376;32;318460;-77
2023/11/30 05:12:49;;;;;;;10.30;7.33;;;;;;;;;;4388615;32;318406;-80
2023/11/30 05:15:17;;;;;;;14.37;7.53;;;;;;;;;;4388785;32;317467;-79
2023/11/30 05:17:44;;;;;;;18.60;10.07;;;;;;;;;;4374568;32;416902;-79
2023/11/30 05:20:11;;;;;;;13.17;8.67;;;;;;;;;;4387793;32;317711;-80
2023/11/30 05:22:38;;;;;;;8.97;5.57;;;;;;;;;;4376723;32;338435;-79
2023/11/30 05:25:06;;;;;;;6.67;5.23;;;;;;;;;;4387824;32;316896;-78
2023/11/30 05:27:32;;;;;;;7.70;6.03;;;;;;;;;;4378207;32;316547;-78
2023/11/30 05:29:59;;;;;;;8.47;6.20;;;;;;;;;;4388045;32;316114;-82
2023/11/30 05:32:28;;;;;;;10.50;6.70;;;;;;;;;;4377259;32;316321;-81
2023/11/30 05:34:55;;;;;;;10.10;7.57;;;;;;;;;;4388002;32;317411;-79
2023/11/30 05:37:21;;;;;;;11.00;7.77;;;;;;;;;;4377892;32;317357;-77
2023/11/30 05:39:48;;;;;;;8.43;5.93;;;;;;;;;;4385773;32;317358;-79
2023/11/30 05:42:15;;;;;;;9.47;6.60;;;;;;;;;;4386827;32;316519;-81
2023/11/30 05:44:42;;;;;;;11.53;6.43;;;;;;;;;;4377009;32;337089;-79
2023/11/30 05:47:09;;;;;;;13.43;6.83;;;;;;;;;;4387867;32;317642;-79
2023/11/30 05:49:37;;;;;;;15.20;8.70;;;;;;;;;;4377244;32;317284;-79
2023/11/30 05:52:04;;;;;;;16.13;8.60;;;;;;;;;;4387567;32;317469;-79
2023/11/30 05:54:31;;;;;;;10.17;7.73;;;;;;;;;;4377477;32;317297;-83
2023/11/30 05:56:57;;;;;;;14.43;7.30;;;;;;;;;;4387570;32;317519;-83
2023/11/30 05:59:24;;;;;;;12.33;7.00;;;;;;;;;;4376195;32;317383;-82
2023/11/30 06:01:51;;;;;;;10.80;7.83;;;;;;;;;;4386667;32;317408;-82
2023/11/30 06:04:18;;;;;;;10.60;7.13;;;;;;;;;;4377119;32;316854;-77
2023/11/30 06:06:46;;;;;;;14.23;8.00;;;;;;;;;;4387188;32;317448;-81
2023/11/30 06:09:15;;;;;;;15.43;10.00;;;;;;;;;;4387229;32;317360;-81
2023/11/30 06:11:41;;;;;;;15.13;10.63;;;;;;;;;;4375788;32;318568;-80
2023/11/30 06:14:09;;;;;;;15.10;10.13;;;;;;;;;;4385873;32;318406;-80
2023/11/30 06:16:36;;;;;;;16.97;9.93;;;;;;;;;;4375726;32;318591;-80
2023/11/30 06:19:03;;;;;;;17.20;8.87;;;;;;;;;;4386697;32;328488;-81
2023/11/30 06:21:30;;;;;;;16.73;9.33;;;;;;;;;;4376925;32;317620;-81
2023/11/30 06:23:58;;;;;;;13.40;7.47;;;;;;;;;;4387394;32;317239;-81
2023/11/30 06:26:25;;;;;;;18.17;9.93;;;;;;;;;;4377142;32;317331;-81
2023/11/30 06:28:51;;;;;;;17.60;9.60;;;;;;;;;;4387038;32;317323;-80
2023/11/30 06:31:18;;;;;;;19.63;10.17;;;;;;;;;;4375838;32;317496;-79
2023/11/30 06:33:45;;;;;;;18.03;9.60;;;;;;;;;;4385627;32;317633;-81
2023/11/30 06:36:12;;;;;;;16.50;9.67;;;;;;;;;;4386890;32;317307;-80
2023/11/30 06:38:39;;;;;;;16.77;9.97;;;;;;;;;;4375510;32;317492;-81
2023/11/30 06:41:12;;;;;;;21.67;10.27;;;;;;;;;;4386764;32;316703;-80
2023/11/30 06:43:40;;;;;;;13.77;9.40;;;;;;;;;;4375471;32;318528;-81
2023/11/30 06:46:07;;;;;;;18.23;9.27;;;;;;;;;;4386462;32;317405;-80
2023/11/30 06:48:34;;;;;;;14.37;8.93;;;;;;;;;;4375819;32;317188;-80
2023/11/30 06:51:01;;;;;;;9.50;7.77;;;;;;;;;;4386786;32;316831;-81
2023/11/30 06:53:28;;;;;;;11.13;7.93;;;;;;;;;;4376988;32;316277;-82
2023/11/30 06:55:55;;;;;;;15.33;11.07;;;;;;;;;;4386395;32;317287;-80
2023/11/30 06:58:23;;;;;;;12.17;7.13;;;;;;;;;;4376522;32;318941;-80
2023/11/30 07:00:51;;;;;;;8.93;6.50;;;;;;;;;;4386560;32;317268;-81
2023/11/30 07:03:18;;;;;;;11.03;6.57;;;;;;;;;;4375579;32;368323;-77
2023/11/30 07:05:45;;;;;;;14.20;8.20;;;;;;;;;;4386550;32;317329;-80
2023/11/30 07:08:12;;;;;;;13.73;6.93;;;;;;;;;;4386319;32;317399;-81
2023/11/30 07:10:39;;;;;;;8.63;6.33;;;;;;;;;;4376586;32;317145;-80
2023/11/30 07:13:07;;;;;;;13.60;5.93;;;;;;;;;;4386077;32;316530;-80
2023/11/30 07:15:35;;;;;;;7.80;5.87;;;;;;;;;;4377110;32;317193;-81
2023/11/30 07:18:03;;;;;;;7.43;5.50;;;;;;;;;;4385617;32;316203;-83
2023/11/30 07:20:30;;;;;;;7.87;4.90;;;;;;;;;;4376621;32;316345;-81
2023/11/30 07:22:57;;;;;;;10.20;6.23;;;;;;;;;;4386406;32;316285;-82
2023/11/30 07:25:24;;;;;;;9.30;5.50;;;;;;;;;;4374679;32;316491;-79
2023/11/30 07:27:53;;;;;;;9.20;5.50;;;;;;;;;;4386258;32;316080;-80
2023/11/30 07:30:20;;;;;;;11.17;7.20;;;;;;;;;;4376072;32;335207;-76
2023/11/30 07:32:50;;;;;;;10.73;6.90;;;;;;;;;;4389060;32;316829;-80
2023/11/30 07:35:17;;;;;;;8.10;5.93;;;;;;;;;;4389439;32;317231;-80
2023/11/30 07:37:44;;;;;;;10.53;6.80;;;;;;;;;;4376655;32;415485;-81
2023/11/30 07:40:11;;;;;;;9.63;7.10;;;;;;;;;;4388340;32;317169;-79
2023/11/30 07:42:38;;;;;;;8.90;6.83;;;;;;;;;;4379097;32;316229;-81
2023/11/30 07:45:06;;;;;;;10.33;6.93;;;;;;;;;;4388839;32;315979;-81
2023/11/30 07:47:33;;;;;;;10.23;5.50;;;;;;;;;;4379199;32;317151;-80
2023/11/30 07:50:01;;;;;;;9.97;5.80;;;;;;;;;;4389052;32;316792;-80
2023/11/30 07:52:28;;;;;;;11.13;7.03;;;;;;;;;;4379072;32;316210;-80
2023/11/30 07:54:55;;;;;;;11.23;6.57;;;;;;;;;;4387958;32;317241;-80
2023/11/30 07:57:22;;;;;;;9.70;5.90;;;;;;;;;;4378738;32;317161;-78
2023/11/30 07:59:49;;;;;;;12.80;7.67;;;;;;;;;;4388927;32;316054;-81
2023/11/30 08:02:16;;;;;;;11.97;7.13;;;;;;;;;;4388944;32;317267;-81
2023/11/30 08:04:43;;;;;;;11.77;7.47;;;;;;;;;;4367023;32;417205;-79
2023/11/30 08:07:11;;;;;;;11.10;7.17;;;;;;;;;;4375819;32;317238;-80
2023/11/30 08:09:39;;;;;;;15.57;8.23;;;;;;;;;;4365409;32;317430;-80
2023/11/30 08:12:06;;;;;;;15.23;8.87;;;;;;;;;;4375137;32;317073;-80
2023/11/30 08:14:33;;;;;;;37.60;20.97;;;;;;;;;;4364385;32;316453;-82
2023/11/30 08:17:04;;;;;;;24.27;16.13;;;;;;;;;;4373872;32;317423;-82
2023/11/30 08:19:32;;;;;;;23.90;14.07;;;;;;;;;;4364318;32;318265;-83
2023/11/30 08:21:59;;;;;;;37.57;18.37;;;;;;;;;;4375454;32;318413;-81
2023/11/30 08:24:28;;;;;;;19.77;12.27;;;;;;;;;;4363613;32;318510;-81
2023/11/30 08:26:55;;;;;;;16.97;11.90;;;;;;;;;;4373396;32;318197;-81
2023/11/30 08:29:22;;;;;;;19.17;9.87;;;;;;;;;;4362391;32;318752;-81
2023/11/30 08:31:49;;;;;;;30.30;18.57;;;;;;;;;;4373833;32;317287;-81
2023/11/30 08:34:15;;;;;;;17.67;11.83;;;;;;;;;;4372255;32;318334;-82
2023/11/30 08:36:43;;;;;;;14.73;10.03;;;;;;;;;;4359094;32;419715;-81
2023/11/30 08:39:10;;;;;;;20.87;13.70;;;;;;;;;;4373232;32;317507;-84
2023/11/30 08:41:38;;;;;;;14.10;9.23;;;;;;;;;;4362192;32;318323;-81
2023/11/30 08:44:09;;;;;;;14.67;10.23;;;;;;;;;;4373675;32;317330;-82
2023/11/30 08:46:36;;;;;;;10.37;8.50;;;;;;;;;;4363032;32;317712;-83
2023/11/30 08:49:02;;;;;;;11.27;8.87;;;;;;;;;;4373418;32;317407;-80
2023/11/30 08:51:29;;;;;;;13.63;8.47;;;;;;;;;;4361700;32;317345;-81
2023/11/30 08:53:56;;;;;;;10.77;7.73;;;;;;;;;;4372066;32;350747;-82
2023/11/30 08:56:26;;;;;;;13.03;8.37;;;;;;;;;;4363109;32;317220;-79
2023/11/30 08:58:54;;;;;;;9.97;6.90;;;;;;;;;;4373331;32;317167;-81
2023/11/30 09:01:21;;;;;;;11.20;8.00;;;;;;;;;;4362083;32;324050;-79
2023/11/30 09:03:48;;;;;;;13.67;9.07;;;;;;;;;;4370607;32;317349;-81
2023/11/30 09:06:15;;;;;;;14.13;9.87;;;;;;;;;;4372693;32;317024;-81
2023/11/30 09:08:42;;;;;;;15.13;9.33;;;;;;;;;;4363054;32;317177;-82
2023/11/30 09:11:09;;;;;;;13.57;9.83;;;;;;;;;;4373046;32;317373;-83
2023/11/30 09:13:35;;;;;;;16.13;11.40;;;;;;;;;;4361628;32;317249;-81
2023/11/30 09:16:04;;;;;;;15.33;9.60;;;;;;;;;;4371394;32;318232;-81
2023/11/30 09:18:32;;;;;;;15.00;8.67;;;;;;;;;;4362687;32;317165;-81
2023/11/30 09:20:59;;;;;;;10.77;6.97;;;;;;;;;;4371387;32;316627;-81
2023/11/30 09:23:26;;;;;;;12.53;7.40;;;;;;;;;;4362581;32;317316;-83
2023/11/30 09:25:53;;;;;;;11.50;8.57;;;;;;;;;;4372387;32;317107;-82
2023/11/30 09:28:21;;;;;;;15.70;10.60;;;;;;;;;;4362718;32;317419;-80
2023/11/30 09:30:47;;;;;;;19.30;11.83;;;;;;;;;;4371403;32;318280;-81
2023/11/30 09:33:17;;;;;;;17.20;10.43;;;;;;;;;;4370631;32;348477;-82
2023/11/30 09:35:43;;;;;;;14.03;9.60;;;;;;;;;;4358362;32;418053;-82
2023/11/30 09:38:10;;;;;;;14.60;9.20;;;;;;;;;;4371717;32;317562;-83
2023/11/30 09:40:39;;;;;;;19.43;12.47;;;;;;;;;;4361830;32;320694;-81
2023/11/30 09:43:05;;;;;;;17.07;10.17;;;;;;;;;;4371401;32;317561;-82
2023/11/30 09:45:33;;;;;;;16.40;10.83;;;;;;;;;;4361410;32;317544;-80
2023/11/30 09:47:59;;;;;;;15.20;8.97;;;;;;;;;;4373026;32;318562;-82
2023/11/30 09:50:27;;;;;;;11.10;8.70;;;;;;;;;;4362088;32;316831;-81
2023/11/30 09:52:54;;;;;;;8.10;6.63;;;;;;;;;;4372463;32;317238;-81
2023/11/30 09:55:25;;;;;;;19.80;10.23;;;;;;;;;;4363041;32;316178;-81
2023/11/30 09:57:52;;;;;;;13.33;8.70;;;;;;;;;;4374553;32;318374;-82
2023/11/30 10:00:20;;;;;;;13.37;8.57;;;;;;;;;;4364750;32;316385;-78
2023/11/30 10:02:57;;;;;;;17.33;10.70;;;;;;;;;;4374797;32;316578;-80
2023/11/30 10:05:26;;;;;;;17.10;8.67;;;;;;;;;;4365377;32;318374;-79
2023/11/30 10:07:54;;;;;;;17.77;9.67;;;;;;;;;;4375359;32;317272;-79
2023/11/30 10:10:22;;;;;;;14.53;10.57;;;;;;;;;;4365949;32;317247;-78
2023/11/30 10:12:48;;;;;;;26.23;16.90;;;;;;;;;;4373761;32;318444;-81
2023/11/30 10:15:15;;;;;;;26.47;18.07;;;;;;;;;;4373905;32;318408;-81
2023/11/30 10:17:42;;;;;;;17.30;11.20;;;;;;;;;;4360463;32;389319;-80
2023/11/30 10:20:11;;;;;;;26.03;18.03;;;;;;;;;;4374108;32;318332;-82
2023/11/30 10:22:39;;;;;;;25.80;15.80;;;;;;;;;;4363706;32;318185;-81
2023/11/30 10:25:09;;;;;;;19.53;13.83;;;;;;;;;;4371225;32;318381;-80
2023/11/30 10:27:36;;;;;;;15.17;11.17;;;;;;;;;;4360994;32;318178;-80
2023/11/30 10:30:04;;;;;;;19.63;12.33;;;;;;;;;;4372456;32;318229;-82
2023/11/30 10:32:35;;;;;;;10.10;8.63;;;;;;;;;;4361907;32;318332;-81
2023/11/30 10:35:06;;;;;;;15.57;10.83;;;;;;;;;;4371661;32;316511;-81
2023/11/30 10:37:37;;;;;;;17.17;12.77;;;;;;;;;;4360768;32;318440;-81
2023/11/30 10:40:11;;;;;;;19.83;10.70;;;;;;;;;;4370077;32;317439;-81
2023/11/30 10:42:38;;;;;;;12.13;10.00;;;;;;;;;;4359801;32;317674;-81
2023/11/30 10:45:06;;;;;;;19.33;13.43;;;;;;;;;;4371743;32;317650;-81
2023/11/30 10:47:35;;;;;;;17.63;14.13;;;;;;;;;;4360732;32;318685;-82
2023/11/30 10:50:05;;;;;;;16.37;11.07;;;;;;;;;;4372145;32;318243;-81
2023/11/30 10:52:34;;;;;;;19.77;12.30;;;;;;;;;;4360586;32;318809;-80
2023/11/30 10:55:06;;;;;;;15.10;11.53;;;;;;;;;;4371311;32;318372;-81
2023/11/30 10:57:34;;;;;;;11.13;8.17;;;;;;;;;;4359135;32;337252;-82
2023/11/30 11:00:01;;;;;;;13.20;8.53;;;;;;;;;;4371135;32;316679;-81
2023/11/30 11:02:37;;;;;;;13.50;10.87;;;;;;;;;;4361524;32;317322;-81
2023/11/30 11:05:08;;;;;;;19.03;12.57;;;;;;;;;;4370003;32;318254;-81
2023/11/30 11:07:37;;;;;;;13.23;9.23;;;;;;;;;;4359597;32;318270;-82
2023/11/30 11:10:06;;;;;;;16.77;10.83;;;;;;;;;;4370111;32;317438;-81
2023/11/30 11:12:39;;;;;;;13.67;8.97;;;;;;;;;;4359843;32;318312;-81
2023/11/30 11:15:08;;;;;;;13.27;10.00;;;;;;;;;;4370260;32;323794;-80
2023/11/30 11:17:46;;;;;;;20.67;9.50;;;;;;;;;;4361127;32;318435;-83
2023/11/30 11:20:20;;;;;;;14.93;10.67;;;;;;;;;;4371497;32;317436;-81
2023/11/30 11:22:48;;;;;;;13.40;9.50;;;;;;;;;;4373282;32;418057;-82
2023/11/30 11:25:17;;;;;;;13.37;9.37;;;;;;;;;;4385678;32;316699;-81
2023/11/30 11:27:46;;;;;;;13.87;10.63;;;;;;;;;;4373568;32;416453;-83
2023/11/30 11:30:14;;;;;;;15.87;12.33;;;;;;;;;;4386060;32;318597;-82
2023/11/30 11:32:42;;;;;;;16.57;9.90;;;;;;;;;;4374142;32;318504;-81
2023/11/30 11:35:11;;;;;;;18.00;10.20;;;;;;;;;;4386126;32;317410;-83
2023/11/30 11:37:38;;;;;;;16.63;11.07;;;;;;;;;;4374770;32;319017;-81
2023/11/30 11:40:05;;;;;;;14.90;10.20;;;;;;;;;;4385124;32;318323;-81
2023/11/30 11:42:33;;;;;;;14.83;9.07;;;;;;;;;;4374947;32;318133;-81
2023/11/30 11:45:04;;;;;;;12.20;10.07;;;;;;;;;;4386113;32;317257;-81
2023/11/30 11:47:31;;;;;;;13.30;10.00;;;;;;;;;;4375127;32;318197;-81
2023/11/30 11:50:03;;;;;;;13.07;9.50;;;;;;;;;;4385736;32;318527;-82
2023/11/30 11:52:32;;;;;;;14.53;9.27;;;;;;;;;;4375042;32;317170;-81
2023/11/30 11:55:00;;;;;;;16.40;11.07;;;;;;;;;;4385256;32;352362;-80
2023/11/30 11:57:32;;;;;;;16.20;11.47;;;;;;;;;;4374789;32;318338;-80
2023/11/30 12:00:00;;;;;;;11.50;9.27;;;;;;;;;;4384902;32;353216;-81
2023/11/30 12:02:28;;;;;;;19.47;12.73;;;;;;;;;;4374466;32;316727;-80
2023/11/30 12:05:06;;;;;;;15.80;11.53;;;;;;;;;;4385789;32;318454;-80
2023/11/30 12:07:33;;;;;;;12.90;10.60;;;;;;;;;;4375843;32;318874;-82
2023/11/30 12:10:00;;;;;;;17.57;12.90;;;;;;;;;;4385872;32;317657;-80
2023/11/30 12:12:32;;;;;;;25.90;14.17;;;;;;;;;;4375883;32;318239;-80
2023/11/30 12:14:59;;;;;;;19.77;11.63;;;;;;;;;;4384962;32;316720;-82
2023/11/30 12:17:26;;;;;;;17.37;10.57;;;;;;;;;;4376023;32;318440;-84
2023/11/30 12:19:54;;;;;;;15.87;9.83;;;;;;;;;;4387755;32;317585;-85
2023/11/30 12:22:21;;;;;;;13.80;9.43;;;;;;;;;;4379186;32;317359;-85
2023/11/30 12:24:48;;;;;;;12.93;9.47;;;;;;;;;;4388623;32;316694;-85
2023/11/30 12:27:15;;;;;;;13.67;10.17;;;;;;;;;;4389127;32;317239;-85
2023/11/30 12:29:42;;;;;;;13.60;9.50;;;;;;;;;;4378773;32;318271;-84
2023/11/30 12:32:08;;;;;;;12.57;9.63;;;;;;;;;;4389567;32;317318;-84
2023/11/30 12:34:35;;;;;;;22.80;10.37;;;;;;;;;;4378514;32;317735;-81
2023/11/30 12:37:03;;;;;;;13.40;9.03;;;;;;;;;;4388278;32;318442;-81
2023/11/30 12:39:30;;;;;;;8.83;6.40;;;;;;;;;;4378933;32;317156;-79
2023/11/30 12:41:59;;;;;;;11.07;8.73;;;;;;;;;;4388668;32;316290;-79
2023/11/30 12:44:26;;;;;;;15.40;9.83;;;;;;;;;;4377429;32;317335;-80
2023/11/30 12:46:53;;;;;;;13.63;9.37;;;;;;;;;;4387571;32;317341;-82
2023/11/30 12:49:20;;;;;;;18.07;12.27;;;;;;;;;;4377758;32;317306;-78
2023/11/30 12:51:47;;;;;;;11.87;8.63;;;;;;;;;;4387475;32;317930;-80
2023/11/30 12:54:15;;;;;;;29.87;17.83;;;;;;;;;;4387372;32;317437;-82
2023/11/30 12:56:42;;;;;;;21.07;12.60;;;;;;;;;;4377555;32;318230;-81
2023/11/30 12:59:09;;;;;;;193.90;81.97;;;;;;;;;;4387830;32;318305;-79
2023/11/30 13:01:37;;;;;;;66.10;32.80;;;;;;;;;;4377032;32;319547;-80
2023/11/30 13:04:04;;;;;;;31.97;17.03;;;;;;;;;;4388567;32;318223;-78
2023/11/30 13:06:30;;;;;;;20.93;13.00;;;;;;;;;;4376571;32;331505;-79
2023/11/30 13:08:57;;;;;;;19.37;12.10;;;;;;;;;;4388504;32;318397;-79
2023/11/30 13:11:26;;;;;;;17.83;12.30;;;;;;;;;;4378342;32;318294;-79
2023/11/30 13:13:53;;;;;;;57.97;28.93;;;;;;;;;;4386845;32;317523;-79
2023/11/30 13:16:19;;;;;;;40.77;22.57;;;;;;;;;;4376595;32;322603;-78
2023/11/30 13:18:46;;;;;;;29.30;16.63;;;;;;;;;;4388364;32;317569;-82
2023/11/30 13:21:13;;;;;;;20.17;14.63;;;;;;;;;;4389201;32;318259;-79
2023/11/30 13:23:40;;;;;;;21.73;13.57;;;;;;;;;;4378815;32;318520;-80
2023/11/30 13:26:08;;;;;;;35.33;21.07;;;;;;;;;;4388509;32;318508;-79
2023/11/30 13:28:36;;;;;;;30.63;18.87;;;;;;;;;;4376184;32;332245;-81
2023/11/30 13:31:03;;;;;;;23.30;14.80;;;;;;;;;;4387340;32;318313;-81
2023/11/30 13:33:30;;;;;;;24.10;15.83;;;;;;;;;;4376837;32;318439;-79
2023/11/30 13:35:57;;;;;;;25.93;14.90;;;;;;;;;;4387487;32;317801;-78
2023/11/30 13:38:24;;;;;;;25.93;16.67;;;;;;;;;;4378092;32;318276;-78
2023/11/30 13:40:51;;;;;;;28.53;16.53;;;;;;;;;;4387941;32;317888;-82
2023/11/30 13:43:18;;;;;;;26.70;15.57;;;;;;;;;;4378603;32;318566;-74
2023/11/30 13:45:47;;;;;;;19.60;15.07;;;;;;;;;;4387645;32;318492;-81
2023/11/30 13:48:15;;;;;;;21.63;16.63;;;;;;;;;;4386913;32;318157;-79
2023/11/30 13:50:43;;;;;;;25.87;17.13;;;;;;;;;;4376752;32;318331;-79
2023/11/30 13:53:12;;;;;;;25.87;17.00;;;;;;;;;;4387136;32;318422;-80
2023/11/30 13:55:40;;;;;;;27.17;18.00;;;;;;;;;;4376671;32;318456;-80
2023/11/30 13:58:08;;;;;;;30.97;20.70;;;;;;;;;;4387590;32;318411;-79
2023/11/30 14:00:35;;;;;;;31.10;20.30;;;;;;;;;;4376817;32;318415;-79
2023/11/30 14:03:06;;;;;;;38.67;24.83;;;;;;;;;;4387905;32;318393;-79
2023/11/30 14:05:33;;;;;;;40.17;23.20;;;;;;;;;;4376202;32;318393;-82
2023/11/30 14:08:00;;;;;;;37.53;26.13;;;;;;;;;;4386673;32;327774;-78
2023/11/30 14:10:27;;;;;;;38.70;26.90;;;;;;;;;;4377066;32;318587;-80
2023/11/30 14:12:54;;;;;;;50.83;29.77;;;;;;;;;;4386352;32;318315;-80
2023/11/30 14:15:21;;;;;;;76.87;37.40;;;;;;;;;;4386234;32;318656;-81